Time;durP1;ratioP1;P1;durP2;ratioP2;P2;SDS_P1;SDS_P2;PMS_P1;PMS_P2;Temp;Humidity;BMP_temperature;BMP_pressure;BME280_temperature;BME280_humidity;BME280_pressure;Samples;Min_cycle;Max_cycle;Signal;HPM_P1;HPM_P2
2022/04/18 00:01:44;;;;;;;14.43;10.43;;;12.70;45.10;;;;;;5037922;28;20034;-64
2022/04/18 00:04:09;;;;;;;18.45;11.63;;;12.60;45.20;;;;;;5039711;28;20186;-64
2022/04/18 00:06:36;;;;;;;14.65;10.50;;;12.60;45.10;;;;;;5036376;28;20083;-64
2022/04/18 00:09:03;;;;;;;17.17;12.27;;;12.60;45.10;;;;;;5039064;28;20398;-64
2022/04/18 00:11:29;;;;;;;16.75;11.13;;;12.60;45.30;;;;;;5053513;28;20033;-64
2022/04/18 00:13:55;;;;;;;16.60;11.00;;;12.50;45.40;;;;;;5054285;28;20033;-64
2022/04/18 00:16:20;;;;;;;15.57;11.73;;;12.50;45.60;;;;;;5054652;28;20029;-64
2022/04/18 00:18:46;;;;;;;14.43;10.55;;;12.50;45.60;;;;;;5053772;28;20029;-64
2022/04/18 00:21:12;;;;;;;17.45;11.15;;;12.50;45.60;;;;;;5053189;28;20059;-63
2022/04/18 00:23:37;;;;;;;18.70;12.00;;;12.40;45.60;;;;;;5053149;28;20029;-63
2022/04/18 00:26:03;;;;;;;16.25;11.30;;;12.40;45.50;;;;;;5052410;28;20086;-64
2022/04/18 00:28:29;;;;;;;19.42;11.50;;;12.40;45.50;;;;;;5076313;28;20028;-63
2022/04/18 00:30:54;;;;;;;15.88;10.93;;;12.40;45.80;;;;;;5059903;28;20029;-64
2022/04/18 00:33:20;;;;;;;16.85;11.48;;;12.40;45.90;;;;;;5063612;28;20037;-64
2022/04/18 00:35:46;;;;;;;19.42;11.50;;;12.40;46.00;;;;;;5056263;28;20039;-64
2022/04/18 00:38:11;;;;;;;18.35;11.15;;;12.30;46.00;;;;;;5056180;28;20029;-64
2022/04/18 00:40:37;;;;;;;16.67;11.77;;;12.30;46.30;;;;;;5056974;28;20083;-63
2022/04/18 00:43:04;;;;;;;17.00;11.52;;;12.30;46.40;;;;;;5061531;28;20032;-64
2022/04/18 00:45:30;;;;;;;17.23;11.40;;;12.20;46.40;;;;;;5056723;28;20083;-64
2022/04/18 00:47:55;;;;;;;18.42;11.75;;;12.20;46.50;;;;;;5057191;28;20033;-63
2022/04/18 00:50:22;;;;;;;16.33;11.45;;;12.20;46.60;;;;;;5055797;28;20024;-64
2022/04/18 00:52:51;;;;;;;16.20;11.38;;;12.20;46.70;;;;;;5057596;28;20033;-64
2022/04/18 00:55:18;;;;;;;18.35;11.02;;;12.20;46.90;;;;;;5068296;28;20048;-64
2022/04/18 00:57:44;;;;;;;18.65;11.75;;;12.10;46.90;;;;;;5057163;28;20033;-64
2022/04/18 01:00:10;;;;;;;18.17;11.25;;;12.10;47.10;;;;;;5055694;28;20032;-64
2022/04/18 01:02:35;;;;;;;15.32;11.30;;;12.10;47.20;;;;;;5057060;28;20033;-64
2022/04/18 01:05:01;;;;;;;15.30;11.07;;;12.00;47.20;;;;;;5057700;28;20033;-63
2022/04/18 01:07:27;;;;;;;15.27;11.38;;;12.00;47.30;;;;;;5055385;28;20037;-63
2022/04/18 01:09:52;;;;;;;15.98;10.93;;;12.00;47.40;;;;;;5039457;28;20056;-64
2022/04/18 01:12:18;;;;;;;15.35;11.07;;;12.00;47.50;;;;;;5060160;28;20020;-64
2022/04/18 01:14:55;;;;;;;19.58;11.80;;;11.90;47.50;;;;;;5058791;28;20114;-64
2022/04/18 01:17:44;;;;;;;16.90;11.65;;;11.90;47.60;;;;;;5056537;28;20087;-64
2022/04/18 01:20:42;;;;;;;19.15;11.52;;;11.80;47.70;;;;;;5053930;28;20029;-64
2022/04/18 01:23:21;;;;;;;14.50;10.82;;;11.80;47.60;;;;;;5056111;28;20033;-64
2022/04/18 01:28:58;;;;;;;18.67;11.90;;;11.70;47.70;;;;;;5062758;28;20025;-64
2022/04/18 01:31:31;;;;;;;17.73;11.57;;;11.70;47.80;;;;;;5054212;28;20178;-64
2022/04/18 01:33:58;;;;;;;18.90;11.75;;;11.70;48.00;;;;;;5039814;28;20680;-64
2022/04/18 01:36:25;;;;;;;17.98;11.88;;;11.60;48.10;;;;;;5046558;28;20385;-64
2022/04/18 01:38:51;;;;;;;18.40;12.43;;;11.60;48.20;;;;;;5074210;28;20035;-64
2022/04/18 01:41:18;;;;;;;18.95;12.07;;;11.60;48.10;;;;;;5061744;28;20087;-64
2022/04/18 01:43:44;;;;;;;15.80;11.55;;;11.60;48.20;;;;;;5055032;28;20045;-64
2022/04/18 01:46:09;;;;;;;18.20;11.48;;;11.60;48.30;;;;;;5056436;28;20054;-64
2022/04/18 01:48:36;;;;;;;18.10;11.65;;;11.60;48.40;;;;;;5074457;28;20461;-64
2022/04/18 01:51:02;;;;;;;18.05;12.27;;;11.60;48.50;;;;;;5071119;28;20035;-63
2022/04/18 01:53:30;;;;;;;19.95;12.75;;;11.60;48.60;;;;;;5069491;28;20024;-64
2022/04/18 01:55:56;;;;;;;17.95;12.32;;;11.50;48.60;;;;;;5060361;28;20500;-64
2022/04/18 01:58:27;;;;;;;18.75;11.93;;;11.50;48.60;;;;;;5062870;28;20392;-63
2022/04/18 02:00:53;;;;;;;18.67;12.63;;;11.40;48.60;;;;;;5054350;28;20024;-64
2022/04/18 02:03:19;;;;;;;18.98;12.45;;;11.40;48.70;;;;;;5038018;28;20029;-64
2022/04/18 02:05:44;;;;;;;18.27;12.23;;;11.50;48.80;;;;;;5054551;28;20032;-63
2022/04/18 02:08:11;;;;;;;20.45;12.85;;;11.40;48.80;;;;;;5060969;28;20025;-63
2022/04/18 02:10:37;;;;;;;17.30;12.00;;;11.40;48.90;;;;;;5067232;28;20078;-63
2022/04/18 02:13:03;;;;;;;19.98;13.15;;;11.40;49.00;;;;;;5053826;28;20115;-63
2022/04/18 02:15:31;;;;;;;17.45;11.73;;;11.40;49.00;;;;;;5036239;28;20034;-63
2022/04/18 02:18:00;;;;;;;19.02;12.60;;;11.40;49.00;;;;;;5054129;28;20442;-64
2022/04/18 02:20:26;;;;;;;18.23;12.20;;;11.30;49.10;;;;;;5024001;28;20139;-63
2022/04/18 02:22:52;;;;;;;20.73;13.27;;;11.30;49.20;;;;;;5053371;28;20032;-63
2022/04/18 02:25:18;;;;;;;17.77;12.70;;;11.30;49.30;;;;;;5054835;28;20116;-64
2022/04/18 02:27:44;;;;;;;19.42;12.32;;;11.20;49.30;;;;;;5054104;28;20032;-64
2022/04/18 02:30:11;;;;;;;19.75;14.25;;;11.20;49.40;;;;;;5043545;28;20040;-63
2022/04/18 02:32:49;;;;;;;20.05;13.68;;;11.20;49.60;;;;;;5053894;28;20045;-63
2022/04/18 02:35:16;;;;;;;21.13;14.30;;;11.20;49.70;;;;;;5069246;28;20029;-64
2022/04/18 02:37:42;;;;;;;23.33;14.85;;;11.10;49.70;;;;;;5054019;28;20035;-63
2022/04/18 02:40:10;;;;;;;20.65;14.00;;;11.10;49.80;;;;;;5048617;28;20124;-63
2022/04/18 02:42:36;;;;;;;24.55;15.60;;;11.00;49.90;;;;;;5054002;28;20078;-63
2022/04/18 02:45:02;;;;;;;25.27;15.63;;;11.00;49.90;;;;;;5048562;28;20191;-63
2022/04/18 02:48:00;;;;;;;22.52;15.20;;;10.90;49.90;;;;;;5052284;28;20102;-63
2022/04/18 02:50:26;;;;;;;21.95;14.90;;;10.90;50.00;;;;;;5035707;28;20111;-63
2022/04/18 02:52:53;;;;;;;21.77;14.43;;;10.90;50.10;;;;;;5034220;28;20478;-63
2022/04/18 02:55:25;;;;;;;19.73;12.82;;;10.90;50.30;;;;;;5035643;28;21723;-63
2022/04/18 02:57:52;;;;;;;20.40;13.13;;;10.80;50.20;;;;;;5036357;28;20033;-64
2022/04/18 03:00:18;;;;;;;23.40;14.38;;;10.80;50.30;;;;;;5036070;28;20491;-64
2022/04/18 03:02:47;;;;;;;18.77;13.20;;;10.80;50.50;;;;;;5045555;28;20032;-64
2022/04/18 03:05:12;;;;;;;19.15;12.27;;;10.70;50.50;;;;;;5051500;28;20037;-63
2022/04/18 03:07:38;;;;;;;17.58;11.70;;;10.80;50.70;;;;;;5052495;28;20051;-63
2022/04/18 03:10:05;;;;;;;16.92;11.35;;;10.70;50.80;;;;;;5036590;28;20051;-64
2022/04/18 03:12:31;;;;;;;18.42;11.80;;;10.70;50.90;;;;;;5035801;28;20036;-64
2022/04/18 03:14:57;;;;;;;23.23;12.43;;;10.70;50.90;;;;;;5052103;28;20045;-63
2022/04/18 03:17:24;;;;;;;18.88;12.65;;;10.60;51.00;;;;;;5039766;28;20490;-63
2022/04/18 03:19:52;;;;;;;15.77;11.40;;;10.60;51.20;;;;;;5052860;28;20421;-64
2022/04/18 03:22:19;;;;;;;16.15;10.90;;;10.60;51.20;;;;;;5035513;28;20032;-63
2022/04/18 03:24:47;;;;;;;18.00;11.18;;;10.60;51.40;;;;;;5054086;28;20095;-63
2022/04/18 03:27:17;;;;;;;16.95;10.85;;;10.50;51.50;;;;;;5053256;28;20090;-63
2022/04/18 03:29:42;;;;;;;16.92;11.57;;;10.50;51.60;;;;;;5057163;28;20453;-64
2022/04/18 03:32:09;;;;;;;17.13;12.30;;;10.50;51.70;;;;;;5055095;28;20040;-64
2022/04/18 03:34:35;;;;;;;17.08;11.40;;;10.40;51.80;;;;;;5052963;28;20028;-63
2022/04/18 03:39:52;;;;;;;16.55;10.82;;;10.40;51.90;;;;;;5050249;28;20029;-63
2022/04/18 03:42:31;;;;;;;19.05;11.68;;;10.40;51.90;;;;;;5054639;28;20115;-63
2022/04/18 03:45:02;;;;;;;16.75;11.32;;;10.30;51.90;;;;;;5047736;28;20025;-63
2022/04/18 03:47:28;;;;;;;15.48;10.88;;;10.30;51.90;;;;;;5052503;28;20115;-64
2022/04/18 03:49:56;;;;;;;18.98;11.30;;;10.30;52.00;;;;;;5054000;28;20074;-63
2022/04/18 03:52:23;;;;;;;19.63;11.40;;;10.30;52.10;;;;;;5059863;28;20056;-63
2022/04/18 03:54:50;;;;;;;16.33;11.15;;;10.30;52.30;;;;;;5069868;28;20021;-63
2022/04/18 03:57:21;;;;;;;15.90;10.68;;;10.20;52.30;;;;;;5052893;28;20032;-63
2022/04/18 03:59:53;;;;;;;15.18;11.27;;;10.20;52.30;;;;;;5064037;28;20457;-63
2022/04/18 04:02:21;;;;;;;17.33;11.32;;;10.20;52.40;;;;;;5063115;28;20085;-64
2022/04/18 04:04:51;;;;;;;17.77;10.77;;;10.10;52.50;;;;;;5056976;28;20050;-63
2022/04/18 04:07:17;;;;;;;21.33;12.27;;;10.10;52.50;;;;;;5056679;28;20123;-63
2022/04/18 04:09:44;;;;;;;16.83;11.45;;;10.10;52.50;;;;;;5053842;28;20370;-63
2022/04/18 04:12:13;;;;;;;15.80;10.18;;;10.10;52.60;;;;;;5043185;28;20439;-63
2022/04/18 04:14:53;;;;;;;16.63;10.98;;;10.10;52.70;;;;;;5058458;28;20033;-64
2022/04/18 04:17:23;;;;;;;16.45;11.55;;;10.10;52.70;;;;;;5056459;28;20361;-63
2022/04/18 04:19:50;;;;;;;15.57;11.52;;;10.00;52.70;;;;;;5071192;28;20033;-64
2022/04/18 04:22:27;;;;;;;15.65;10.73;;;10.00;52.70;;;;;;5043177;28;20024;-63
2022/04/18 04:25:00;;;;;;;16.88;10.98;;;10.00;52.90;;;;;;5041003;28;20449;-63
2022/04/18 04:27:30;;;;;;;16.27;10.85;;;10.00;52.90;;;;;;5056130;28;20032;-64
2022/04/18 04:29:57;;;;;;;16.38;11.15;;;10.00;53.00;;;;;;5058244;28;20039;-64
2022/04/18 04:32:31;;;;;;;17.85;11.73;;;9.90;53.00;;;;;;5056817;28;20033;-64
2022/04/18 04:34:57;;;;;;;17.13;11.35;;;9.90;53.10;;;;;;5056226;28;20035;-64
2022/04/18 04:37:29;;;;;;;15.52;10.80;;;9.90;53.20;;;;;;5056558;28;20036;-64
2022/04/18 04:40:10;;;;;;;16.45;11.50;;;9.90;53.30;;;;;;5043612;28;20124;-64
2022/04/18 04:42:36;;;;;;;16.63;11.27;;;9.80;53.20;;;;;;5059958;28;20024;-64
2022/04/18 04:45:02;;;;;;;17.58;12.27;;;9.80;53.20;;;;;;5056743;28;20357;-63
2022/04/18 04:47:47;;;;;;;16.23;10.70;;;9.80;53.20;;;;;;5056787;28;20055;-63
2022/04/18 04:50:13;;;;;;;20.83;12.00;;;9.80;53.30;;;;;;5067083;28;20029;-63
2022/04/18 04:52:45;;;;;;;16.45;11.02;;;9.80;53.30;;;;;;5077208;28;20028;-63
2022/04/18 04:55:13;;;;;;;18.25;12.57;;;9.80;53.30;;;;;;5063570;28;20033;-63
2022/04/18 04:57:45;;;;;;;17.50;11.75;;;9.80;53.40;;;;;;5055986;28;20031;-63
2022/04/18 05:00:29;;;;;;;17.80;11.38;;;9.80;53.50;;;;;;5058212;28;20443;-63
2022/04/18 05:03:04;;;;;;;18.17;12.05;;;9.80;53.50;;;;;;5056147;28;20025;-63
2022/04/18 05:05:32;;;;;;;18.95;12.02;;;9.70;53.60;;;;;;5056741;28;20082;-63
2022/04/18 05:07:58;;;;;;;17.58;12.55;;;9.80;53.70;;;;;;5056601;28;20025;-63
2022/04/18 05:10:28;;;;;;;16.90;12.10;;;9.70;53.70;;;;;;5056267;28;20342;-63
2022/04/18 05:12:54;;;;;;;16.92;11.43;;;9.80;53.80;;;;;;5056884;28;20378;-63
2022/04/18 05:15:20;;;;;;;17.13;11.23;;;9.70;53.80;;;;;;5056595;28;20115;-63
2022/04/18 05:18:06;;;;;;;16.30;11.85;;;9.80;54.00;;;;;;5056198;28;20039;-63
2022/04/18 05:20:31;;;;;;;18.30;12.57;;;9.80;54.00;;;;;;5056106;28;20170;-63
2022/04/18 05:22:58;;;;;;;15.98;11.23;;;9.80;54.10;;;;;;5057166;28;20112;-63
2022/04/18 05:25:24;;;;;;;16.95;11.50;;;9.80;54.00;;;;;;5073521;28;20020;-63
2022/04/18 05:27:51;;;;;;;16.42;11.00;;;9.90;54.00;;;;;;5062809;28;20535;-63
2022/04/18 05:30:27;;;;;;;15.35;10.75;;;9.90;54.00;;;;;;5055229;28;20025;-64
2022/04/18 05:32:54;;;;;;;16.77;12.07;;;9.90;53.80;;;;;;5057249;28;20473;-64
2022/04/18 05:35:20;;;;;;;17.30;11.73;;;10.00;53.70;;;;;;5066245;28;20057;-64
2022/04/18 05:37:47;;;;;;;17.10;11.40;;;10.20;53.40;;;;;;5055843;28;20117;-64
2022/04/18 05:40:38;;;;;;;17.70;11.48;;;10.60;52.70;;;;;;5055508;28;20028;-64
2022/04/18 05:43:04;;;;;;;16.08;11.13;;;11.10;51.90;;;;;;5061109;28;20078;-63
2022/04/18 05:45:32;;;;;;;17.17;10.77;;;11.50;51.20;;;;;;5068267;28;20020;-63
2022/04/18 05:48:05;;;;;;;13.98;11.00;;;11.70;50.60;;;;;;5055076;28;20051;-64
2022/04/18 05:50:36;;;;;;;17.27;11.05;;;12.00;50.10;;;;;;5054683;28;20104;-63
2022/04/18 05:53:16;;;;;;;15.43;10.55;;;12.20;49.60;;;;;;5056360;28;20492;-63
2022/04/18 05:56:05;;;;;;;15.48;10.82;;;12.50;49.40;;;;;;5053838;28;20103;-63
2022/04/18 05:58:42;;;;;;;16.65;10.70;;;12.80;48.60;;;;;;5033849;28;20040;-64
2022/04/18 06:01:29;;;;;;;17.30;10.43;;;13.30;48.30;;;;;;5012682;28;20130;-63
2022/04/18 06:03:55;;;;;;;14.63;10.85;;;13.70;46.80;;;;;;5037092;28;20469;-63
2022/04/18 06:06:22;;;;;;;14.35;10.52;;;14.00;46.60;;;;;;5054282;28;20067;-64
2022/04/18 06:08:48;;;;;;;14.85;10.57;;;14.20;45.90;;;;;;5054430;28;20112;-64
2022/04/18 06:11:20;;;;;;;14.50;10.55;;;14.60;45.60;;;;;;5037442;28;20017;-64
2022/04/18 06:13:54;;;;;;;16.00;10.63;;;15.20;45.10;;;;;;5054081;28;20041;-63
2022/04/18 06:16:20;;;;;;;16.50;11.25;;;16.00;44.70;;;;;;5036769;28;20044;-63
2022/04/18 06:18:48;;;;;;;15.25;10.88;;;16.70;43.10;;;;;;5036792;28;20413;-64
2022/04/18 06:21:14;;;;;;;16.80;10.35;;;17.30;42.20;;;;;;5036637;28;20037;-64
2022/04/18 06:23:42;;;;;;;14.00;9.15;;;17.80;41.10;;;;;;5037921;28;20061;-65
2022/04/18 06:26:33;;;;;;;14.25;9.38;;;17.90;40.50;;;;;;5041463;28;20041;-65
2022/04/18 06:29:01;;;;;;;15.57;8.93;;;17.60;40.40;;;;;;5037334;28;20373;-65
2022/04/18 06:31:27;;;;;;;12.38;8.40;;;17.40;40.50;;;;;;5053285;28;20027;-65
2022/04/18 06:33:56;;;;;;;12.82;8.93;;;17.10;40.40;;;;;;5036990;28;20037;-65
2022/04/18 06:36:22;;;;;;;12.77;7.95;;;16.90;40.50;;;;;;5048577;28;20102;-65
2022/04/18 06:39:02;;;;;;;12.95;7.80;;;16.70;40.30;;;;;;5054374;28;20025;-64
2022/04/18 06:41:28;;;;;;;12.30;8.02;;;16.60;40.10;;;;;;5037387;28;20029;-63
2022/04/18 06:43:54;;;;;;;12.52;6.88;;;16.60;40.00;;;;;;5053984;28;20029;-64
2022/04/18 06:46:20;;;;;;;11.07;6.80;;;16.60;39.90;;;;;;5061749;28;20427;-65
2022/04/18 06:48:45;;;;;;;11.68;7.15;;;16.60;39.60;;;;;;5073872;28;20020;-65
2022/04/18 06:51:20;;;;;;;12.20;7.38;;;16.70;39.30;;;;;;5056661;28;20041;-64
2022/04/18 06:54:11;;;;;;;12.30;7.38;;;16.70;39.20;;;;;;5053955;28;20051;-64
2022/04/18 06:56:59;;;;;;;10.27;7.13;;;16.80;39.10;;;;;;5053867;28;20033;-63
2022/04/18 07:00:04;;;;;;;11.93;7.28;;;16.80;38.90;;;;;;5037822;28;20091;-64
2022/04/18 07:02:32;;;;;;;12.98;7.25;;;16.90;38.80;;;;;;5044051;28;20478;-64
2022/04/18 07:04:59;;;;;;;13.48;8.57;;;17.10;39.30;;;;;;5054948;28;20024;-64
2022/04/18 07:07:26;;;;;;;12.52;7.88;;;17.20;38.50;;;;;;5070335;28;20193;-64
2022/04/18 07:09:51;;;;;;;13.82;7.65;;;17.30;38.30;;;;;;5037246;28;20060;-64
2022/04/18 07:12:22;;;;;;;11.38;7.05;;;17.30;38.10;;;;;;5054733;28;20056;-64
2022/04/18 07:14:52;;;;;;;10.50;6.43;;;17.50;38.00;;;;;;5053748;28;20025;-64
2022/04/18 07:17:18;;;;;;;12.23;7.65;;;17.60;37.90;;;;;;5055316;28;20052;-64
2022/04/18 07:19:43;;;;;;;10.57;7.20;;;17.70;37.90;;;;;;5053397;28;20056;-64
2022/04/18 07:22:13;;;;;;;11.68;6.82;;;17.80;37.70;;;;;;5054695;28;20033;-64
2022/04/18 07:24:38;;;;;;;10.80;6.53;;;17.90;37.60;;;;;;5053910;28;20044;-64
2022/04/18 07:27:04;;;;;;;10.75;6.50;;;18.00;37.40;;;;;;5035371;28;20132;-64
2022/04/18 07:29:33;;;;;;;11.57;7.68;;;18.10;37.30;;;;;;5033624;28;20408;-64
2022/04/18 07:31:59;;;;;;;10.57;6.38;;;18.20;37.20;;;;;;5048879;28;20515;-64
2022/04/18 07:34:25;;;;;;;10.82;7.05;;;18.30;37.10;;;;;;5073757;28;20044;-64
2022/04/18 07:36:51;;;;;;;10.90;6.93;;;18.50;37.00;;;;;;5060235;28;20114;-64
2022/04/18 07:39:17;;;;;;;10.63;6.63;;;18.60;36.90;;;;;;5070827;28;20472;-64
2022/04/18 07:41:49;;;;;;;9.55;6.28;;;18.70;36.80;;;;;;5071947;28;20094;-64
2022/04/18 07:44:16;;;;;;;10.00;5.25;;;18.80;36.80;;;;;;5055858;28;20120;-64
2022/04/18 07:46:42;;;;;;;10.43;5.18;;;18.90;36.50;;;;;;5033673;28;20462;-64
2022/04/18 07:49:14;;;;;;;9.20;4.18;;;19.10;36.20;;;;;;5054669;28;20029;-64
2022/04/18 07:51:45;;;;;;;9.80;4.53;;;19.20;35.90;;;;;;5054705;28;20023;-64
2022/04/18 07:54:33;;;;;;;7.90;3.95;;;19.30;35.70;;;;;;5053911;28;20021;-64
2022/04/18 07:57:00;;;;;;;9.18;4.20;;;19.50;35.30;;;;;;5053366;28;20028;-64
2022/04/18 07:59:45;;;;;;;9.35;4.00;;;19.60;35.20;;;;;;5054756;28;20377;-64
2022/04/18 08:02:11;;;;;;;7.80;4.25;;;19.70;35.10;;;;;;5063564;28;20115;-64
2022/04/18 08:04:55;;;;;;;6.78;3.35;;;19.90;35.00;;;;;;5067063;28;20457;-65
2022/04/18 08:07:31;;;;;;;8.63;3.92;;;20.10;34.80;;;;;;5053555;28;20039;-64
2022/04/18 08:09:57;;;;;;;7.35;3.70;;;20.20;34.60;;;;;;5059463;28;20028;-64
2022/04/18 08:12:24;;;;;;;7.70;4.05;;;20.30;34.50;;;;;;5061099;28;20033;-64
2022/04/18 08:15:08;;;;;;;6.95;3.40;;;20.40;34.30;;;;;;5054208;28;20048;-64
2022/04/18 08:17:35;;;;;;;8.45;3.90;;;20.50;34.30;;;;;;5053111;28;20067;-64
2022/04/18 08:20:03;;;;;;;6.80;3.22;;;20.60;34.00;;;;;;5040451;28;20357;-64
2022/04/18 08:22:29;;;;;;;6.68;3.40;;;20.70;33.90;;;;;;5060231;28;20437;-64
2022/04/18 08:25:13;;;;;;;7.18;3.60;;;20.80;33.80;;;;;;5054344;28;20087;-64
2022/04/18 08:27:57;;;;;;;7.47;3.03;;;21.00;33.80;;;;;;5054091;28;20373;-64
2022/04/18 08:30:30;;;;;;;7.80;3.95;;;21.00;33.70;;;;;;5054666;28;20056;-64
2022/04/18 08:33:06;;;;;;;7.25;3.20;;;21.10;33.70;;;;;;5070905;28;20037;-64
2022/04/18 08:35:32;;;;;;;8.95;3.50;;;21.10;33.60;;;;;;5065759;28;20017;-64
2022/04/18 08:38:00;;;;;;;9.00;3.58;;;21.20;33.30;;;;;;5064865;28;20025;-64
2022/04/18 08:40:33;;;;;;;8.73;3.60;;;21.20;33.30;;;;;;5054543;28;20029;-64
2022/04/18 08:43:00;;;;;;;7.03;3.35;;;21.30;33.30;;;;;;5069508;28;20437;-64
2022/04/18 08:45:29;;;;;;;7.45;3.38;;;21.40;33.10;;;;;;5072817;28;20017;-64
2022/04/18 08:53:31;;;;;;;6.18;2.65;;;21.60;32.80;;;;;;5056916;28;20091;-63
2022/04/18 08:55:59;;;;;;;6.82;3.17;;;21.80;32.70;;;;;;5057081;28;20373;-64
2022/04/18 08:58:29;;;;;;;7.18;3.25;;;21.90;32.60;;;;;;5056878;28;20099;-64
2022/04/18 09:00:57;;;;;;;6.88;2.85;;;21.90;32.40;;;;;;5057665;28;20043;-64
2022/04/18 09:03:41;;;;;;;7.75;3.33;;;21.90;32.30;;;;;;5058204;28;20037;-64
2022/04/18 09:06:13;;;;;;;6.68;3.08;;;22.00;32.20;;;;;;5056490;28;20071;-64
2022/04/18 09:08:51;;;;;;;6.80;2.53;;;22.10;32.10;;;;;;5056625;28;20025;-65
2022/04/18 09:11:29;;;;;;;7.38;3.00;;;22.10;32.00;;;;;;5056944;28;20017;-64
2022/04/18 09:14:04;;;;;;;6.13;2.95;;;22.10;31.70;;;;;;5056342;28;20442;-64
2022/04/18 09:16:31;;;;;;;6.30;3.00;;;22.20;31.80;;;;;;5056114;28;20029;-64
2022/04/18 09:19:15;;;;;;;6.53;3.08;;;22.20;31.70;;;;;;5056044;28;20117;-64
2022/04/18 09:21:58;;;;;;;4.97;2.33;;;22.30;31.70;;;;;;5065570;28;20112;-64
2022/04/18 09:24:34;;;;;;;7.28;2.97;;;22.40;31.50;;;;;;5076125;28;20030;-64
2022/04/18 09:27:27;;;;;;;6.95;3.08;;;22.50;31.50;;;;;;5061312;28;20052;-64
2022/04/18 09:30:06;;;;;;;6.28;3.20;;;22.60;31.30;;;;;;5075869;28;20120;-64
2022/04/18 09:32:35;;;;;;;5.13;2.60;;;22.70;31.20;;;;;;5057602;28;20076;-64
2022/04/18 09:35:24;;;;;;;5.68;2.72;;;22.70;31.10;;;;;;5055688;28;20036;-64
2022/04/18 09:37:55;;;;;;;5.55;2.67;;;22.80;31.00;;;;;;5055596;28;20446;-65
2022/04/18 09:40:47;;;;;;;5.55;2.55;;;22.80;30.90;;;;;;5057075;28;20029;-66
2022/04/18 09:43:13;;;;;;;6.78;2.65;;;22.90;30.90;;;;;;5059330;28;20365;-65
2022/04/18 09:45:39;;;;;;;6.65;3.00;;;22.90;31.40;;;;;;5066620;28;20017;-65
2022/04/18 09:48:05;;;;;;;5.60;2.72;;;22.90;30.90;;;;;;5052240;28;20021;-64
2022/04/18 09:53:24;;;;;;;7.80;2.95;;;23.00;30.60;;;;;;5070684;28;20032;-64
2022/04/18 09:55:51;;;;;;;6.30;2.50;;;23.00;30.50;;;;;;5068764;28;20028;-64
2022/04/18 09:58:17;;;;;;;5.45;2.40;;;23.10;30.50;;;;;;5063896;28;20041;-64
2022/04/18 10:00:43;;;;;;;4.20;2.40;;;23.10;30.50;;;;;;5076211;28;20062;-64
2022/04/18 10:03:09;;;;;;;5.38;2.60;;;23.30;30.50;;;;;;5074509;28;20037;-64
2022/04/18 10:05:35;;;;;;;5.35;2.60;;;23.30;30.30;;;;;;5076411;28;20039;-64
2022/04/18 10:08:04;;;;;;;5.38;2.53;;;23.40;30.30;;;;;;5061194;28;20353;-64
2022/04/18 10:10:34;;;;;;;5.18;2.28;;;23.50;30.10;;;;;;5076322;28;20418;-64
2022/04/18 10:13:01;;;;;;;6.05;2.85;;;23.40;30.00;;;;;;5064668;28;20071;-64
2022/04/18 10:15:27;;;;;;;5.88;2.92;;;23.50;30.00;;;;;;5056259;28;20037;-64
2022/04/18 10:17:54;;;;;;;5.93;2.75;;;23.50;29.90;;;;;;5058557;28;20032;-64
2022/04/18 10:20:49;;;;;;;5.78;2.72;;;23.50;29.80;;;;;;5056052;28;20341;-64
2022/04/18 10:23:33;;;;;;;5.93;2.55;;;23.50;29.60;;;;;;5054577;28;20049;-65
2022/04/18 10:26:33;;;;;;;5.63;2.60;;;23.50;29.60;;;;;;5054448;28;20120;-64
2022/04/18 10:29:03;;;;;;;6.78;2.85;;;23.50;29.70;;;;;;5050280;28;20422;-65
2022/04/18 10:31:39;;;;;;;4.63;2.25;;;23.50;29.60;;;;;;5055419;28;20078;-65
2022/04/18 10:34:05;;;;;;;7.13;3.08;;;23.60;29.60;;;;;;5055295;28;20044;-65
2022/04/18 10:36:33;;;;;;;6.55;2.63;;;23.50;29.50;;;;;;5055844;28;20029;-65
2022/04/18 10:39:06;;;;;;;6.32;2.55;;;23.40;29.40;;;;;;5056795;28;20401;-64
2022/04/18 10:41:37;;;;;;;5.43;2.20;;;23.40;29.40;;;;;;5054899;28;20024;-65
2022/04/18 10:44:10;;;;;;;6.60;2.80;;;23.40;29.40;;;;;;5055031;28;20082;-64
2022/04/18 10:46:49;;;;;;;4.57;2.35;;;23.40;29.30;;;;;;5054736;28;20037;-65
2022/04/18 10:49:20;;;;;;;6.68;2.90;;;23.40;29.20;;;;;;5055694;28;20428;-64
2022/04/18 10:51:51;;;;;;;6.00;2.43;;;23.40;29.30;;;;;;5055183;28;20028;-65
2022/04/18 10:54:20;;;;;;;6.10;2.97;;;23.30;29.30;;;;;;5049759;28;20412;-65
2022/04/18 10:56:52;;;;;;;6.57;2.75;;;23.40;29.20;;;;;;5060549;28;20050;-65
2022/04/18 10:59:20;;;;;;;7.63;2.55;;;23.50;29.10;;;;;;5055791;28;20039;-64
2022/04/18 11:01:46;;;;;;;4.80;2.28;;;23.60;28.80;;;;;;5055022;28;20113;-65
2022/04/18 11:04:13;;;;;;;5.10;2.25;;;23.60;28.60;;;;;;5055609;28;20488;-65
2022/04/18 11:06:39;;;;;;;6.28;2.42;;;23.60;28.60;;;;;;5054065;28;20442;-64
2022/04/18 11:09:13;;;;;;;4.72;2.30;;;23.60;28.50;;;;;;5067745;28;20075;-65
2022/04/18 11:11:47;;;;;;;6.78;2.45;;;23.60;28.40;;;;;;5060951;28;20029;-65
2022/04/18 11:14:20;;;;;;;4.68;2.45;;;23.60;28.20;;;;;;5054695;28;20032;-65
2022/04/18 11:16:45;;;;;;;4.05;2.08;;;23.60;28.10;;;;;;5062958;28;20035;-65
2022/04/18 11:19:14;;;;;;;6.97;2.22;;;23.60;28.00;;;;;;5072498;28;20136;-65
2022/04/18 11:21:55;;;;;;;5.00;2.35;;;23.60;27.80;;;;;;5062813;28;20043;-65
2022/04/18 11:24:37;;;;;;;;;;;23.60;27.80;;;;;;5055205;28;20072;-66
2022/04/18 11:27:12;;;;;;;4.90;2.20;;;23.60;28.10;;;;;;5039294;28;19913;-65
2022/04/18 11:29:40;;;;;;;6.35;2.50;;;23.60;27.90;;;;;;5054813;28;20067;-65
2022/04/18 11:32:07;;;;;;;5.40;2.20;;;23.70;27.90;;;;;;5059517;28;20064;-65
2022/04/18 11:34:34;;;;;;;6.45;2.95;;;23.60;27.70;;;;;;5054656;28;20033;-65
2022/04/18 11:37:02;;;;;;;5.75;2.75;;;23.60;27.80;;;;;;5054437;28;20041;-65
2022/04/18 11:39:49;;;;;;;6.47;2.90;;;23.60;27.90;;;;;;5060543;28;20044;-65
2022/04/18 11:42:19;;;;;;;6.05;3.00;;;23.60;27.90;;;;;;5054392;28;20106;-65
2022/04/18 11:44:46;;;;;;;5.80;2.75;;;23.60;28.00;;;;;;5053858;28;20044;-65
2022/04/18 11:47:19;;;;;;;6.38;3.10;;;23.60;28.30;;;;;;5053938;28;20045;-65
2022/04/18 11:49:46;;;;;;;6.40;2.95;;;23.60;28.30;;;;;;5056076;28;20032;-65
2022/04/18 11:52:18;;;;;;;6.10;3.00;;;23.50;28.30;;;;;;5059606;28;20437;-65
2022/04/18 11:54:56;;;;;;;6.03;3.28;;;23.50;28.50;;;;;;5055367;28;20039;-65
2022/04/18 11:57:22;;;;;;;7.03;3.30;;;23.40;28.30;;;;;;5057276;28;20439;-65
2022/04/18 11:59:47;;;;;;;6.05;2.88;;;23.30;28.40;;;;;;5054611;28;20033;-65
2022/04/18 12:07:46;;;;;;;6.10;3.10;;;23.20;28.90;;;;;;5053105;28;20079;-65
2022/04/18 12:10:24;;;;;;;6.53;3.20;;;23.00;28.50;;;;;;5043431;28;20037;-65
2022/04/18 12:12:50;;;;;;;7.13;3.60;;;23.00;28.70;;;;;;5053777;28;20071;-65
2022/04/18 12:15:16;;;;;;;8.25;3.30;;;22.90;28.60;;;;;;5053716;28;20032;-65
2022/04/18 12:17:42;;;;;;;6.55;3.45;;;22.80;28.60;;;;;;5049828;28;20354;-65
2022/04/18 12:20:23;;;;;;;6.35;3.17;;;22.80;28.60;;;;;;5034174;28;20029;-65
2022/04/18 12:22:53;;;;;;;5.63;3.05;;;22.80;28.70;;;;;;5055153;28;20104;-65
2022/04/18 12:25:23;;;;;;;6.88;3.10;;;22.80;28.80;;;;;;5054027;28;20090;-65
2022/04/18 12:27:50;;;;;;;5.60;2.90;;;22.80;28.90;;;;;;5053354;28;20026;-65
2022/04/18 12:30:16;;;;;;;9.05;3.08;;;22.70;28.90;;;;;;5057091;28;20021;-65
2022/04/18 12:32:47;;;;;;;6.97;3.25;;;22.70;28.90;;;;;;5056743;28;20045;-66
2022/04/18 12:35:33;;;;;;;5.45;2.70;;;22.60;29.00;;;;;;5066335;28;20487;-65
2022/04/18 12:38:03;;;;;;;5.72;2.72;;;22.60;28.80;;;;;;5065338;28;20029;-65
2022/04/18 12:40:40;;;;;;;6.32;3.00;;;22.60;28.80;;;;;;5056244;28;20029;-65
2022/04/18 12:43:16;;;;;;;5.03;2.53;;;22.50;28.70;;;;;;5057306;28;20025;-65
2022/04/18 12:45:55;;;;;;;6.60;3.05;;;22.40;28.80;;;;;;5056295;28;20120;-65
2022/04/18 12:48:26;;;;;;;6.03;2.83;;;22.40;28.70;;;;;;5056195;28;20063;-65
2022/04/18 12:50:53;;;;;;;7.28;3.00;;;22.30;28.80;;;;;;5049921;28;20346;-65
2022/04/18 12:53:21;;;;;;;6.40;2.92;;;22.20;28.80;;;;;;5057530;28;20037;-65
2022/04/18 12:56:02;;;;;;;6.72;3.00;;;22.20;28.70;;;;;;5059654;28;20384;-65
2022/04/18 12:58:35;;;;;;;5.05;2.50;;;22.20;28.70;;;;;;5059972;28;20450;-65
2022/04/18 13:01:01;;;;;;;5.35;2.70;;;22.10;28.60;;;;;;5057915;28;20025;-65
2022/04/18 13:03:27;;;;;;;6.07;2.70;;;22.10;28.60;;;;;;5062010;28;20028;-65
2022/04/18 13:05:53;;;;;;;7.20;2.58;;;22.00;28.60;;;;;;5057495;28;20029;-65
2022/04/18 13:08:19;;;;;;;6.63;2.47;;;21.90;28.60;;;;;;5051580;28;20043;-65
2022/04/18 13:10:45;;;;;;;6.70;2.92;;;21.90;28.80;;;;;;5056911;28;20108;-64
2022/04/18 13:13:17;;;;;;;5.50;2.80;;;21.90;28.70;;;;;;5062304;28;20040;-64
2022/04/18 13:15:45;;;;;;;6.57;2.70;;;21.80;28.60;;;;;;5057166;28;20407;-65